createdAt,value
2023-05-08T00:01:31.291Z,10.74
2023-05-08T00:03:58.664Z,10.91
2023-05-08T00:06:27.594Z,10.87
2023-05-08T00:08:55.632Z,11.04
2023-05-08T00:11:22.593Z,10.95
2023-05-08T00:13:49.629Z,10.89
2023-05-08T00:16:16.863Z,10.92
2023-05-08T00:18:43.764Z,10.89
2023-05-08T00:21:10.670Z,10.87
2023-05-08T00:23:37.623Z,10.85
2023-05-08T00:26:04.671Z,10.77
2023-05-08T00:28:32.008Z,10.72
2023-05-08T00:31:02.447Z,10.75
2023-05-08T00:33:29.617Z,10.62
2023-05-08T00:36:04.151Z,10.53
2023-05-08T00:38:35.075Z,10.45
2023-05-08T00:41:03.082Z,10.33
2023-05-08T00:43:30.164Z,10.27
2023-05-08T00:45:59.785Z,9.96
2023-05-08T00:48:30.661Z,10.10
2023-05-08T00:50:59.101Z,9.91
2023-05-08T00:53:27.353Z,9.84
2023-05-08T00:55:54.461Z,9.87
2023-05-08T00:58:23.389Z,9.86
2023-05-08T01:00:51.520Z,9.81
2023-05-08T01:03:18.803Z,9.86
2023-05-08T01:05:46.293Z,9.69
2023-05-08T01:08:13.516Z,9.30
2023-05-08T01:10:52.034Z,9.43
2023-05-08T01:13:32.802Z,9.68
2023-05-08T01:16:12.241Z,9.66
2023-05-08T01:18:46.036Z,9.64
2023-05-08T01:21:21.988Z,9.56
2023-05-08T01:23:48.973Z,9.64
2023-05-08T01:26:51.856Z,9.60
2023-05-08T01:29:35.504Z,9.57
2023-05-08T01:32:02.821Z,9.60
2023-05-08T01:34:35.519Z,9.67
2023-05-08T01:37:14.973Z,9.59
2023-05-08T01:40:02.580Z,9.54
2023-05-08T01:42:42.134Z,9.55
2023-05-08T01:45:29.163Z,9.57
2023-05-08T01:48:09.178Z,9.54
2023-05-08T01:51:02.576Z,9.56
2023-05-08T01:53:33.216Z,9.58
2023-05-08T01:56:09.715Z,9.56
2023-05-08T01:58:38.465Z,9.58
2023-05-08T02:01:06.219Z,9.53
2023-05-08T02:03:35.316Z,9.09
2023-05-08T02:06:03.135Z,9.56
2023-05-08T02:08:32.015Z,9.46
2023-05-08T02:11:00.721Z,9.02
2023-05-08T02:13:30.350Z,9.40
2023-05-08T02:15:59.425Z,9.55
2023-05-08T02:18:29.885Z,9.54
2023-05-08T02:20:59.444Z,9.60
2023-05-08T02:23:27.841Z,9.61
2023-05-08T02:25:56.317Z,9.47
2023-05-08T02:28:24.709Z,9.52
2023-05-08T02:30:52.840Z,9.53
2023-05-08T02:33:20.883Z,9.55
2023-05-08T02:35:51.173Z,9.59
2023-05-08T02:38:21.567Z,9.62
2023-05-08T02:41:02.242Z,9.65
2023-05-08T02:43:29.555Z,9.72
2023-05-08T02:46:17.736Z,9.81
2023-05-08T02:49:03.649Z,9.84
2023-05-08T02:51:50.307Z,9.96
2023-05-08T02:54:40.093Z,10.02
2023-05-08T02:57:15.721Z,10.07
2023-05-08T02:59:46.900Z,10.14
2023-05-08T03:02:22.426Z,10.18
2023-05-08T03:04:55.563Z,10.21
2023-05-08T03:07:26.138Z,9.84
2023-05-08T03:10:03.808Z,10.26
2023-05-08T03:12:34.079Z,10.27
2023-05-08T03:15:08.722Z,10.29
2023-05-08T03:17:38.031Z,10.23
2023-05-08T03:20:08.416Z,10.12
2023-05-08T03:22:38.911Z,10.22
2023-05-08T03:25:09.257Z,10.31
2023-05-08T03:27:37.522Z,10.13
2023-05-08T03:30:05.588Z,10.24
2023-05-08T03:32:34.612Z,10.34
2023-05-08T03:35:03.869Z,10.35
2023-05-08T03:37:30.846Z,10.21
2023-05-08T03:39:58.014Z,10.43
2023-05-08T03:42:25.539Z,10.36
2023-05-08T03:44:54.068Z,10.34
2023-05-08T03:47:22.149Z,10.44
2023-05-08T03:49:50.312Z,10.43
2023-05-08T03:52:17.264Z,10.49
2023-05-08T03:54:44.654Z,10.46
2023-05-08T03:57:11.678Z,10.42
2023-05-08T03:59:41.557Z,10.52
2023-05-08T04:02:17.537Z,10.56
2023-05-08T04:04:47.315Z,10.64
2023-05-08T04:07:29.004Z,10.66
2023-05-08T04:10:21.701Z,10.60
2023-05-08T04:13:05.551Z,10.67
2023-05-08T04:15:36.736Z,10.71
2023-05-08T04:18:09.820Z,10.76
2023-05-08T04:20:40.565Z,10.70
2023-05-08T04:23:10.036Z,10.61
2023-05-08T04:25:39.017Z,10.67
2023-05-08T04:28:06.171Z,10.74
2023-05-08T04:30:33.432Z,10.80
2023-05-08T04:33:03.851Z,10.90
2023-05-08T04:35:30.790Z,10.81
2023-05-08T04:37:58.907Z,10.84
2023-05-08T04:40:25.920Z,10.93
2023-05-08T04:42:52.893Z,10.95
2023-05-08T04:45:20.055Z,10.86
2023-05-08T04:47:46.998Z,10.88
2023-05-08T04:50:14.018Z,10.92
2023-05-08T04:52:41.474Z,11.09
2023-05-08T04:55:09.092Z,11.09
2023-05-08T04:57:36.205Z,11.12
2023-05-08T05:00:03.556Z,11.16
2023-05-08T05:02:30.576Z,11.12
2023-05-08T05:05:01.458Z,11.22
2023-05-08T05:07:28.426Z,11.14
2023-05-08T05:09:55.377Z,11.13
2023-05-08T05:12:22.290Z,11.03
2023-05-08T05:14:49.194Z,11.30
2023-05-08T05:17:16.041Z,11.26
2023-05-08T05:19:43.054Z,11.31
2023-05-08T05:22:10.203Z,11.32
2023-05-08T05:24:37.081Z,11.48
2023-05-08T05:27:04.674Z,11.56
2023-05-08T05:29:31.655Z,11.58
2023-05-08T05:31:58.675Z,11.63
2023-05-08T05:34:25.772Z,11.67
2023-05-08T05:36:52.589Z,11.54
2023-05-08T05:39:19.561Z,11.53
2023-05-08T05:41:46.621Z,11.65
2023-05-08T05:44:13.693Z,11.47
2023-05-08T05:46:42.719Z,11.82
2023-05-08T05:49:14.383Z,11.76
2023-05-08T05:51:41.785Z,11.78
2023-05-08T05:54:08.768Z,11.61
2023-05-08T05:56:35.724Z,11.49
2023-05-08T05:59:02.908Z,12.01
2023-05-08T06:01:32.454Z,12.03
2023-05-08T06:03:59.638Z,12.02
2023-05-08T06:06:26.994Z,11.57
2023-05-08T06:09:34.154Z,12.25
2023-05-08T06:12:01.362Z,12.30
2023-05-08T06:14:28.692Z,12.55
2023-05-08T06:16:56.081Z,12.68
2023-05-08T06:19:24.614Z,12.59
2023-05-08T06:21:52.336Z,12.67
2023-05-08T06:24:19.363Z,12.81
2023-05-08T06:26:50.865Z,12.83
2023-05-08T06:29:18.241Z,12.92
2023-05-08T06:31:45.337Z,12.76
2023-05-08T06:34:12.802Z,12.86
2023-05-08T06:36:39.864Z,12.93
2023-05-08T06:39:07.666Z,13.15
2023-05-08T06:41:34.709Z,13.16
2023-05-08T06:44:01.613Z,13.24
2023-05-08T06:46:30.066Z,13.29
2023-05-08T06:48:57.183Z,13.31
2023-05-08T06:51:24.170Z,13.11
2023-05-08T06:53:51.101Z,13.07
2023-05-08T06:56:18.079Z,13.28
2023-05-08T06:58:50.802Z,13.54
2023-05-08T07:01:28.137Z,13.70
2023-05-08T07:03:54.991Z,13.64
2023-05-08T07:06:21.904Z,13.85
2023-05-08T07:08:49.595Z,13.92
2023-05-08T07:11:16.559Z,14.02
2023-05-08T07:13:43.632Z,14.08
2023-05-08T07:16:11.106Z,13.98
2023-05-08T07:18:38.401Z,14.13
2023-05-08T07:21:05.341Z,14.13
2023-05-08T07:23:32.437Z,14.28
2023-05-08T07:25:59.561Z,14.50
2023-05-08T07:28:26.737Z,14.07
2023-05-08T07:30:53.722Z,14.33
2023-05-08T07:33:20.924Z,14.08
2023-05-08T07:35:48.431Z,14.28
2023-05-08T07:38:15.475Z,14.33
2023-05-08T07:40:42.818Z,14.15
2023-05-08T07:43:09.893Z,14.36
2023-05-08T07:45:37.249Z,14.33
2023-05-08T07:48:04.480Z,14.54
2023-05-08T07:50:31.675Z,14.76
2023-05-08T07:52:58.921Z,14.40
2023-05-08T07:55:26.155Z,14.72
2023-05-08T07:57:53.432Z,14.67
2023-05-08T08:00:20.775Z,14.81
2023-05-08T08:02:51.278Z,14.85
2023-05-08T08:05:18.604Z,14.97
2023-05-08T08:07:45.847Z,14.95
2023-05-08T08:10:13.055Z,15.12
2023-05-08T08:12:40.081Z,15.10
2023-05-08T08:15:07.868Z,14.84
2023-05-08T08:17:34.898Z,15.42
2023-05-08T08:20:03.309Z,15.28
2023-05-08T08:22:30.909Z,15.22
2023-05-08T08:24:57.875Z,15.28
2023-05-08T08:27:24.757Z,15.65
2023-05-08T08:29:58.586Z,15.77
2023-05-08T08:32:31.771Z,16.31
2023-05-08T08:34:58.806Z,16.60
2023-05-08T08:37:52.398Z,16.73
2023-05-08T08:40:25.314Z,16.84
2023-05-08T08:43:09.354Z,17.71
2023-05-08T08:45:42.751Z,17.64
2023-05-08T08:50:56.402Z,18.98
2023-05-08T08:53:36.359Z,19.97
2023-05-08T08:56:18.729Z,20.08
2023-05-08T08:58:56.901Z,20.51
2023-05-08T09:01:31.183Z,20.83
2023-05-08T09:03:59.992Z,21.58
2023-05-08T09:06:27.879Z,22.07
2023-05-08T09:08:57.116Z,22.71
2023-05-08T09:11:28.376Z,21.68
2023-05-08T09:13:56.099Z,21.13
2023-05-08T09:16:24.257Z,21.69
2023-05-08T09:18:51.719Z,22.44
2023-05-08T09:21:18.998Z,22.40
2023-05-08T09:24:03.638Z,22.82
2023-05-08T09:26:38.453Z,22.69
2023-05-08T09:29:14.355Z,23.47
2023-05-08T09:31:44.547Z,23.72
2023-05-08T09:34:27.091Z,24.12
2023-05-08T09:37:09.961Z,24.27
2023-05-08T09:39:37.114Z,23.19
2023-05-08T09:42:06.058Z,24.34
2023-05-08T09:45:02.713Z,24.35
2023-05-08T09:47:29.796Z,23.47
2023-05-08T09:50:14.915Z,24.79
2023-05-08T09:52:48.019Z,25.03
2023-05-08T09:55:15.321Z,25.69
2023-05-08T09:58:03.461Z,25.84
2023-05-08T10:00:30.664Z,25.61
2023-05-08T10:03:04.325Z,25.68
2023-05-08T10:05:34.622Z,26.15
2023-05-08T10:08:21.290Z,24.99
2023-05-08T10:10:48.719Z,26.14
2023-05-08T10:13:16.103Z,26.37
2023-05-08T10:15:44.686Z,26.01
2023-05-08T10:18:16.230Z,26.25
2023-05-08T10:21:00.747Z,26.66
2023-05-08T10:23:28.999Z,27.26
2023-05-08T10:26:01.948Z,27.70
2023-05-08T10:28:40.765Z,27.25
2023-05-08T10:31:11.784Z,26.91
2023-05-08T10:33:41.212Z,26.61
2023-05-08T10:36:10.079Z,26.62
2023-05-08T10:38:38.033Z,26.49
2023-05-08T10:41:05.627Z,26.69
2023-05-08T10:43:33.606Z,26.88
2023-05-08T10:46:08.427Z,27.73
2023-05-08T10:48:56.169Z,26.36
2023-05-08T10:51:35.333Z,27.32
2023-05-08T10:54:08.899Z,26.31
2023-05-08T10:56:38.310Z,27.36
2023-05-08T10:59:06.337Z,28.01
2023-05-08T11:01:33.477Z,25.77
2023-05-08T11:04:00.710Z,27.05
2023-05-08T11:06:43.089Z,26.36
2023-05-08T11:09:15.723Z,26.57
2023-05-08T11:11:56.299Z,27.47
2023-05-08T11:14:24.233Z,27.92
2023-05-08T11:16:53.941Z,27.61
2023-05-08T11:19:22.601Z,28.88
2023-05-08T11:22:15.261Z,27.67
2023-05-08T11:24:48.716Z,28.23
2023-05-08T11:27:16.390Z,28.51
2023-05-08T11:29:45.209Z,28.67
2023-05-08T11:32:12.361Z,28.42
2023-05-08T11:34:42.182Z,28.81
2023-05-08T11:37:32.684Z,29.53
2023-05-08T11:40:37.988Z,29.37
2023-05-08T11:43:41.658Z,29.69
2023-05-08T11:46:20.793Z,28.39
2023-05-08T11:48:47.972Z,28.16
2023-05-08T11:51:17.831Z,28.87
2023-05-08T11:53:45.320Z,26.54
2023-05-08T11:56:12.495Z,29.20
2023-05-08T11:58:39.694Z,29.32
2023-05-08T12:01:06.969Z,29.06
2023-05-08T12:03:34.449Z,29.32
2023-05-08T12:06:01.752Z,28.33
2023-05-08T12:08:28.907Z,28.85
2023-05-08T12:10:57.416Z,28.84
2023-05-08T12:13:30.209Z,29.72
2023-05-08T12:15:59.671Z,30.57
2023-05-08T12:18:28.506Z,30.58
2023-05-08T12:21:00.838Z,31.05
2023-05-08T12:23:32.575Z,29.49
2023-05-08T12:26:01.040Z,29.89
2023-05-08T12:28:28.392Z,30.66
2023-05-08T12:30:56.538Z,28.68
2023-05-08T12:33:23.970Z,30.95
2023-05-08T12:35:51.096Z,30.21
2023-05-08T12:38:26.641Z,29.50
2023-05-08T12:40:55.799Z,30.00
2023-05-08T12:43:31.823Z,29.51
2023-05-08T12:45:58.892Z,29.72
2023-05-08T12:48:27.178Z,31.43
2023-05-08T12:50:54.640Z,30.79
2023-05-08T12:53:22.366Z,30.89
2023-05-08T12:55:58.053Z,31.25
2023-05-08T12:58:27.203Z,30.27
2023-05-08T13:01:36.579Z,30.57
2023-05-08T13:04:10.472Z,30.54
2023-05-08T13:06:37.472Z,31.37
2023-05-08T13:09:04.543Z,31.00
2023-05-08T13:11:33.449Z,30.82
2023-05-08T13:14:00.793Z,31.01
2023-05-08T13:16:27.732Z,30.37
2023-05-08T13:18:54.887Z,30.60
2023-05-08T13:21:21.814Z,30.67
2023-05-08T13:23:48.802Z,31.07
2023-05-08T13:26:15.880Z,29.43
2023-05-08T13:28:42.882Z,28.38
2023-05-08T13:31:09.921Z,31.09
2023-05-08T13:33:38.402Z,30.83
2023-05-08T13:36:05.935Z,30.23
2023-05-08T13:38:34.630Z,30.71
2023-05-08T13:41:01.620Z,30.91
2023-05-08T13:43:28.733Z,31.54
2023-05-08T13:45:56.018Z,31.37
2023-05-08T13:48:23.058Z,31.79
2023-05-08T13:50:55.825Z,31.03
2023-05-08T13:53:22.726Z,31.25
2023-05-08T13:55:49.762Z,30.40
2023-05-08T13:58:16.835Z,30.51
2023-05-08T14:00:43.815Z,31.98
2023-05-08T14:03:11.012Z,31.41
2023-05-08T14:05:38.016Z,30.45
2023-05-08T14:08:05.147Z,29.89
2023-05-08T14:10:32.209Z,30.57
2023-05-08T14:12:59.398Z,30.06
2023-05-08T14:15:31.764Z,29.78
2023-05-08T14:18:04.148Z,30.17
2023-05-08T14:20:31.157Z,29.42
2023-05-08T14:23:00.069Z,29.70
2023-05-08T14:25:27.441Z,29.20
2023-05-08T14:27:54.509Z,29.27
2023-05-08T14:30:21.545Z,28.71
2023-05-08T14:32:48.820Z,28.53
2023-05-08T14:35:16.492Z,29.39
2023-05-08T14:37:43.466Z,29.36
2023-05-08T14:40:10.687Z,29.04
2023-05-08T14:42:38.612Z,29.25
2023-05-08T14:45:06.196Z,29.05
2023-05-08T14:47:33.928Z,29.24
2023-05-08T14:50:00.978Z,27.84
2023-05-08T14:52:28.074Z,29.17
2023-05-08T14:54:55.154Z,28.52
2023-05-08T14:57:22.122Z,27.30
2023-05-08T14:59:55.142Z,27.50
2023-05-08T15:02:23.889Z,27.31
2023-05-08T15:04:51.060Z,28.12
2023-05-08T15:07:18.060Z,27.85
2023-05-08T15:09:45.038Z,26.25
2023-05-08T15:12:12.374Z,25.91
2023-05-08T15:14:39.312Z,27.08
2023-05-08T15:17:06.298Z,27.80
2023-05-08T15:19:33.241Z,27.47
2023-05-08T15:22:00.624Z,27.42
2023-05-08T15:24:27.626Z,26.91
2023-05-08T15:26:54.707Z,27.40
2023-05-08T15:29:22.073Z,24.97
2023-05-08T15:31:49.397Z,25.38
2023-05-08T15:34:16.546Z,24.36
2023-05-08T15:36:43.517Z,24.01
2023-05-08T15:39:10.933Z,23.41
2023-05-08T15:41:39.817Z,23.18
2023-05-08T15:44:08.020Z,23.17
2023-05-08T15:46:35.008Z,22.50
2023-05-08T15:49:03.082Z,22.12
2023-05-08T15:51:30.414Z,21.87
2023-05-08T15:53:57.918Z,20.54
2023-05-08T15:56:25.976Z,21.74
2023-05-08T15:58:53.720Z,21.80
2023-05-08T16:01:20.956Z,22.09
2023-05-08T16:03:47.921Z,22.40
2023-05-08T16:06:14.757Z,22.08
2023-05-08T16:08:41.703Z,21.75
2023-05-08T16:11:08.701Z,21.37
2023-05-08T16:13:35.707Z,21.33
2023-05-08T16:16:06.049Z,21.32
2023-05-08T16:18:33.180Z,20.34
2023-05-08T16:21:00.372Z,20.97
2023-05-08T16:23:27.471Z,20.82
2023-05-08T16:25:54.413Z,19.80
2023-05-08T16:28:21.417Z,20.23
2023-05-08T16:30:48.382Z,20.21
2023-05-08T16:33:15.556Z,19.89
2023-05-08T16:35:42.664Z,19.71
2023-05-08T16:38:09.715Z,20.21
2023-05-08T16:40:36.600Z,20.15
2023-05-08T16:43:03.558Z,20.11
2023-05-08T16:45:30.960Z,20.27
2023-05-08T16:47:58.488Z,19.89
2023-05-08T16:50:25.620Z,19.78
2023-05-08T16:52:52.541Z,18.96
2023-05-08T16:55:19.711Z,18.67
2023-05-08T16:57:46.730Z,18.15
2023-05-08T17:00:14.148Z,17.75
2023-05-08T17:02:41.505Z,17.09
2023-05-08T17:05:09.038Z,17.22
2023-05-08T17:07:36.077Z,17.38
2023-05-08T17:10:03.199Z,17.12
2023-05-08T17:12:30.413Z,17.20
2023-05-08T17:14:57.281Z,17.15
2023-05-08T17:17:24.218Z,17.09
2023-05-08T17:19:51.233Z,16.88
2023-05-08T17:22:20.552Z,17.07
2023-05-08T17:24:47.772Z,16.95
2023-05-08T17:27:14.696Z,16.70
2023-05-08T17:29:41.704Z,16.50
2023-05-08T17:32:08.613Z,16.39
2023-05-08T17:34:35.631Z,15.97
2023-05-08T17:37:02.577Z,16.07
2023-05-08T17:39:29.600Z,16.08
2023-05-08T17:41:56.716Z,16.18
2023-05-08T17:44:23.941Z,16.02
2023-05-08T17:46:50.949Z,15.67
2023-05-08T17:49:19.427Z,15.87
2023-05-08T17:51:46.776Z,15.59
2023-05-08T17:54:13.892Z,15.61
2023-05-08T17:56:40.892Z,15.39
2023-05-08T17:59:07.775Z,15.44
2023-05-08T18:01:34.726Z,15.31
2023-05-08T18:04:01.817Z,15.21
2023-05-08T18:06:28.828Z,15.20
2023-05-08T18:08:56.098Z,15.04
2023-05-08T18:11:25.430Z,14.65
2023-05-08T18:13:53.328Z,14.85
2023-05-08T18:16:21.383Z,14.79
2023-05-08T18:18:49.583Z,14.73
2023-05-08T18:21:16.699Z,14.76
2023-05-08T18:23:44.058Z,14.55
2023-05-08T18:26:15.292Z,14.57
2023-05-08T18:28:43.821Z,14.62
2023-05-08T18:31:11.932Z,14.57
2023-05-08T18:33:39.261Z,14.56
2023-05-08T18:36:07.309Z,14.44
2023-05-08T18:38:34.972Z,14.49
2023-05-08T18:41:03.350Z,14.41
2023-05-08T18:43:30.404Z,14.21
2023-05-08T18:45:58.152Z,14.22
2023-05-08T18:48:26.182Z,14.11
2023-05-08T18:50:54.320Z,14.06
2023-05-08T18:53:21.855Z,14.02
2023-05-08T18:55:48.944Z,13.98
2023-05-08T18:58:16.395Z,13.84
2023-05-08T19:00:46.941Z,13.60
2023-05-08T19:03:14.421Z,13.38
2023-05-08T19:05:42.274Z,13.58
2023-05-08T19:08:09.670Z,13.45
2023-05-08T19:10:36.666Z,13.24
2023-05-08T19:13:03.763Z,12.76
2023-05-08T19:15:30.815Z,13.26
2023-05-08T19:17:57.970Z,13.18
2023-05-08T19:20:25.542Z,13.20
2023-05-08T19:22:52.909Z,13.14
2023-05-08T19:25:20.342Z,13.20
2023-05-08T19:27:48.126Z,13.18
2023-05-08T19:30:15.537Z,13.20
2023-05-08T19:32:42.970Z,12.87
2023-05-08T19:35:10.134Z,13.10
2023-05-08T19:37:38.115Z,12.68
2023-05-08T19:40:06.797Z,12.83
2023-05-08T19:42:33.908Z,12.28
2023-05-08T19:45:01.418Z,12.79
2023-05-08T19:47:28.460Z,12.13
2023-05-08T19:49:55.577Z,12.18
2023-05-08T19:52:22.587Z,12.30
2023-05-08T19:54:49.553Z,12.56
2023-05-08T19:57:16.536Z,12.52
2023-05-08T19:59:43.486Z,12.58
2023-05-08T20:02:10.575Z,12.45
2023-05-08T20:04:54.504Z,12.36
2023-05-08T20:07:24.556Z,12.41
2023-05-08T20:09:51.437Z,12.46
2023-05-08T20:12:18.527Z,12.27
2023-05-08T20:14:45.618Z,12.40
2023-05-08T20:17:12.728Z,12.26
2023-05-08T20:19:39.743Z,12.38
2023-05-08T20:22:06.922Z,12.24
2023-05-08T20:24:33.870Z,12.21
2023-05-08T20:27:00.784Z,11.70
2023-05-08T20:29:28.056Z,11.61
2023-05-08T20:31:55.062Z,11.74
2023-05-08T20:34:22.279Z,11.66
2023-05-08T20:36:49.298Z,11.66
2023-05-08T20:39:16.350Z,10.99
2023-05-08T20:41:43.304Z,11.26
2023-05-08T20:44:12.412Z,11.50
2023-05-08T20:46:40.909Z,11.61
2023-05-08T20:49:07.900Z,11.58
2023-05-08T20:51:36.425Z,11.21
2023-05-08T20:54:03.667Z,11.62
2023-05-08T20:56:30.685Z,10.94
2023-05-08T20:58:57.678Z,11.47
2023-05-08T21:01:24.744Z,11.74
2023-05-08T21:03:51.677Z,11.21
2023-05-08T21:06:18.633Z,11.72
2023-05-08T21:08:45.653Z,11.60
2023-05-08T21:11:13.005Z,11.76
2023-05-08T21:13:40.054Z,11.40
2023-05-08T21:16:08.431Z,11.28
2023-05-08T21:18:35.508Z,11.47
2023-05-08T21:21:02.895Z,11.41
2023-05-08T21:23:31.235Z,11.45
2023-05-08T21:25:58.234Z,11.45
2023-05-08T21:28:25.085Z,11.31
2023-05-08T21:30:52.054Z,11.34
2023-05-08T21:33:19.076Z,11.21
2023-05-08T21:35:46.855Z,10.99
2023-05-08T21:38:13.900Z,11.33
2023-05-08T21:40:40.959Z,11.33
2023-05-08T21:43:07.995Z,11.19
2023-05-08T21:45:35.240Z,11.00
2023-05-08T21:48:02.543Z,11.17
2023-05-08T21:50:29.568Z,11.15
2023-05-08T21:52:56.838Z,11.10
2023-05-08T21:55:24.181Z,10.89
2023-05-08T21:57:51.494Z,10.93
2023-05-08T22:00:19.114Z,10.59
2023-05-08T22:02:46.440Z,10.86
2023-05-08T22:05:13.613Z,10.85
2023-05-08T22:07:41.436Z,10.77
2023-05-08T22:10:09.475Z,10.74
2023-05-08T22:12:36.422Z,10.63
2023-05-08T22:15:09.329Z,10.59
2023-05-08T22:17:40.297Z,10.37
2023-05-08T22:20:08.832Z,9.76
2023-05-08T22:22:35.772Z,9.99
2023-05-08T22:25:02.733Z,10.37
2023-05-08T22:27:29.727Z,10.18
2023-05-08T22:29:56.712Z,9.23
2023-05-08T22:32:24.494Z,10.06
2023-05-08T22:34:51.540Z,9.86
2023-05-08T22:37:18.803Z,10.05
2023-05-08T22:39:45.728Z,9.77
2023-05-08T22:42:12.781Z,9.96
2023-05-08T22:44:39.937Z,9.84
2023-05-08T22:47:07.099Z,9.76
2023-05-08T22:49:34.275Z,9.77
2023-05-08T22:52:01.243Z,9.75
2023-05-08T22:54:28.070Z,9.64
2023-05-08T22:56:54.934Z,9.44
2023-05-08T22:59:22.708Z,9.48
2023-05-08T23:01:49.639Z,9.45
2023-05-08T23:04:16.603Z,9.48
2023-05-08T23:06:43.524Z,9.39
2023-05-08T23:09:10.522Z,9.28
2023-05-08T23:11:37.533Z,9.20
2023-05-08T23:14:04.343Z,8.87
2023-05-08T23:16:31.265Z,9.29
2023-05-08T23:18:58.220Z,9.32
2023-05-08T23:21:25.151Z,9.37
2023-05-08T23:23:52.903Z,8.72
2023-05-08T23:26:19.829Z,9.27
2023-05-08T23:28:46.760Z,9.17
2023-05-08T23:31:13.612Z,9.13
2023-05-08T23:33:40.667Z,8.83
2023-05-08T23:36:08.073Z,9.14
2023-05-08T23:38:34.912Z,9.05
2023-05-08T23:41:01.851Z,8.15
2023-05-08T23:43:28.758Z,8.73
2023-05-08T23:45:55.764Z,8.84
2023-05-08T23:48:23.759Z,8.84
2023-05-08T23:50:50.736Z,8.82
2023-05-08T23:53:17.711Z,8.82
2023-05-08T23:55:44.678Z,8.64
2023-05-08T23:58:11.670Z,8.71
